Terminal Aerodrome Forecast
Issued by NWS Columbia, SC

Home | Current Version | Previous Version | Text Only | Print | Product List | Glossary On
Versions: 1 2 3 4 5 6 7 8 9 10 11 12 13 14 15 16 17 18 19 20 21 22 23 24 25 26 27 28 29 30 31 32
276
FTUS42 KCAE 232320
TAFCAE
TAF
KCAE 232320Z 2400/2424 VRB05KT P6SM SCT060 BKN200
     FM240200 VRB03KT P6SM SCT200
     FM241500 22006KT P6SM SCT050 SCT200=

USA.gov is the U.S. government's official web portal to all federal, state and local government web resources and services.